Time;durP1;ratioP1;P1;durP2;ratioP2;P2;SDS_P1;SDS_P2;PMS_P1;PMS_P2;Temp;Humidity;BMP_temperature;BMP_pressure;BME280_temperature;BME280_humidity;BME280_pressure;Samples;Min_cycle;Max_cycle;Signal;HPM_P1;HPM_P2
2022/04/17 00:00:10;;;;;;;10.82;6.65;;;;;;;6.44;100.00;102896.66;5344881;27;20023;-77
2022/04/17 00:02:41;;;;;;;8.98;6.20;;;;;;;6.43;100.00;102887.84;5346830;27;20028;-77
2022/04/17 00:05:12;;;;;;;9.45;6.68;;;;;;;6.33;100.00;102897.13;5346043;27;20023;-77
2022/04/17 00:07:44;;;;;;;8.82;6.10;;;;;;;6.39;100.00;102891.53;5351309;27;20019;-77
2022/04/17 00:10:16;;;;;;;8.77;5.95;;;;;;;6.23;100.00;102890.47;5350558;27;20023;-77
2022/04/17 00:12:48;;;;;;;8.70;5.75;;;;;;;6.30;100.00;102886.63;5349022;27;20028;-77
2022/04/17 00:15:19;;;;;;;8.63;6.47;;;;;;;6.17;100.00;102890.72;5347580;27;20023;-77
2022/04/17 00:17:51;;;;;;;9.10;5.68;;;;;;;6.14;100.00;102883.75;5351181;27;20043;-77
2022/04/17 00:20:22;;;;;;;8.30;5.95;;;;;;;6.01;100.00;102879.88;5343889;27;20043;-78
2022/04/17 00:22:53;;;;;;;10.23;6.55;;;;;;;6.05;100.00;102890.31;5345003;27;20532;-78
2022/04/17 00:25:25;;;;;;;10.07;5.65;;;;;;;5.86;100.00;102889.28;5347553;27;20031;-79
2022/04/17 00:27:56;;;;;;;9.60;6.13;;;;;;;5.82;100.00;102883.25;5344303;27;20030;-78
2022/04/17 00:30:27;;;;;;;7.28;5.82;;;;;;;5.75;100.00;102887.09;5343626;27;20027;-78
2022/04/17 00:32:59;;;;;;;7.97;5.65;;;;;;;5.63;100.00;102887.56;5344893;27;20460;-78
2022/04/17 00:35:30;;;;;;;9.65;5.78;;;;;;;5.56;100.00;102886.94;5350385;27;20034;-78
2022/04/17 00:38:02;;;;;;;11.27;5.80;;;;;;;5.49;100.00;102886.31;5346568;27;20054;-78
2022/04/17 00:40:33;;;;;;;7.20;4.97;;;;;;;5.38;100.00;102891.16;5343316;27;20023;-78
2022/04/17 00:43:25;;;;;;;7.22;5.45;;;;;;;5.35;100.00;102887.75;5347128;27;20031;-78
2022/04/17 00:45:57;;;;;;;8.68;5.60;;;;;;;5.35;100.00;102879.81;5346401;27;20036;-78
2022/04/17 00:48:28;;;;;;;8.68;5.47;;;;;;;5.26;100.00;102887.19;5345324;27;20135;-79
2022/04/17 00:51:00;;;;;;;8.27;5.80;;;;;;;5.16;100.00;102877.03;5346630;27;20031;-78
2022/04/17 00:53:31;;;;;;;7.22;5.40;;;;;;;5.16;100.00;102880.53;5345503;27;20031;-78
2022/04/17 00:56:03;;;;;;;8.85;5.75;;;;;;;5.03;100.00;102866.91;5349958;27;20023;-78
2022/04/17 00:58:38;;;;;;;7.50;5.28;;;;;;;5.05;100.00;102877.38;5346604;27;20165;-78
2022/04/17 01:01:09;;;;;;;7.68;5.70;;;;;;;5.05;100.00;102878.28;5347620;27;20103;-78
2022/04/17 01:03:41;;;;;;;7.97;5.43;;;;;;;5.03;100.00;102863.38;5349739;27;20429;-78
2022/04/17 01:06:12;;;;;;;9.80;5.65;;;;;;;5.15;100.00;102880.56;5348101;27;20472;-78
2022/04/17 01:08:44;;;;;;;6.88;5.20;;;;;;;5.11;100.00;102866.59;5341966;27;20114;-78
2022/04/17 01:11:16;;;;;;;7.75;5.75;;;;;;;5.09;100.00;102871.09;5346083;27;20107;-78
2022/04/17 01:13:48;;;;;;;9.18;5.07;;;;;;;5.03;100.00;102872.19;5345855;27;20477;-78
2022/04/17 01:16:23;;;;;;;7.93;5.47;;;;;;;4.99;100.00;102865.25;5346068;27;20061;-78
2022/04/17 01:19:02;;;;;;;7.93;5.63;;;;;;;4.93;100.00;102876.94;5342338;27;20051;-78
2022/04/17 01:21:34;;;;;;;7.85;4.80;;;;;;;4.91;100.00;102872.63;5346691;27;20082;-78
2022/04/17 01:27:00;;;;;;;10.43;5.30;;;;;;;4.74;100.00;102871.44;5348248;27;20488;-78
2022/04/17 01:29:32;;;;;;;7.82;5.45;;;;;;;4.70;100.00;102883.06;5342012;27;20042;-78
2022/04/17 01:32:06;;;;;;;8.32;5.30;;;;;;;4.62;100.00;102884.25;5346850;27;20028;-78
2022/04/17 01:34:37;;;;;;;8.95;5.38;;;;;;;4.53;100.00;102882.78;5346578;27;20026;-78
2022/04/17 01:37:09;;;;;;;8.13;4.97;;;;;;;4.48;100.00;102890.00;5355063;27;20027;-78
2022/04/17 01:39:41;;;;;;;9.25;5.05;;;;;;;4.33;100.00;102881.69;5348089;27;20027;-78
2022/04/17 01:42:13;;;;;;;6.63;4.55;;;;;;;4.39;100.00;102888.53;5346288;27;20036;-78
2022/04/17 01:44:44;;;;;;;7.90;5.40;;;;;;;4.20;100.00;102882.16;5348622;27;20365;-78
2022/04/17 01:47:15;;;;;;;7.00;5.22;;;;;;;4.19;100.00;102877.78;5346756;27;20044;-78
2022/04/17 01:49:49;;;;;;;7.05;4.85;;;;;;;4.04;100.00;102881.81;5345286;27;20032;-78
2022/04/17 01:52:21;;;;;;;8.15;5.43;;;;;;;3.85;100.00;102873.59;5350129;27;20163;-78
2022/04/17 01:54:52;;;;;;;6.65;5.07;;;;;;;3.72;100.00;102884.56;5347308;27;20080;-78
2022/04/17 01:57:23;;;;;;;7.45;4.95;;;;;;;3.84;100.00;102878.03;5348331;27;20063;-78
2022/04/17 01:59:55;;;;;;;8.63;5.25;;;;;;;3.64;100.00;102883.91;5347816;27;20027;-78
2022/04/17 02:02:26;;;;;;;8.75;6.03;;;;;;;3.36;100.00;102868.91;5344294;27;20035;-78
2022/04/17 02:04:57;;;;;;;7.90;5.28;;;;;;;3.32;100.00;102875.22;5344272;27;20370;-78
2022/04/17 02:07:28;;;;;;;8.45;5.85;;;;;;;3.25;100.00;102876.31;5347204;27;20510;-78
2022/04/17 02:10:00;;;;;;;7.15;5.30;;;;;;;3.15;100.00;102873.06;5344489;27;20019;-78
2022/04/17 02:12:34;;;;;;;8.07;5.50;;;;;;;3.18;100.00;102875.63;5347705;27;20538;-78
2022/04/17 02:15:05;;;;;;;10.10;5.78;;;;;;;2.99;100.00;102867.38;5349318;27;20441;-78
2022/04/17 02:17:36;;;;;;;10.07;5.93;;;;;;;3.00;100.00;102870.88;5347290;27;20118;-78
2022/04/17 02:20:10;;;;;;;6.95;5.10;;;;;;;3.01;100.00;102867.31;5349671;27;20570;-78
2022/04/17 02:22:42;;;;;;;8.00;5.72;;;;;;;3.12;100.00;102869.66;5348128;27;20022;-78
2022/04/17 02:25:13;;;;;;;8.55;5.40;;;;;;;3.19;100.00;102864.16;5349689;27;20425;-78
2022/04/17 02:27:45;;;;;;;7.47;5.75;;;;;;;3.22;100.00;102858.78;5346501;27;20062;-78
2022/04/17 02:30:16;;;;;;;11.27;5.57;;;;;;;3.28;100.00;102860.41;5353099;27;20066;-78
2022/04/17 02:32:47;;;;;;;7.90;5.43;;;;;;;3.28;100.00;102865.66;5348867;27;20024;-76
2022/04/17 02:35:18;;;;;;;7.97;5.20;;;;;;;3.31;100.00;102867.34;5349013;27;20027;-77
2022/04/17 02:37:50;;;;;;;6.45;5.10;;;;;;;3.33;100.00;102861.13;5338597;27;20135;-77
2022/04/17 02:40:21;;;;;;;7.68;5.50;;;;;;;3.35;100.00;102858.44;5347225;27;20035;-77
2022/04/17 02:42:53;;;;;;;10.13;5.30;;;;;;;3.32;100.00;102867.28;5347061;27;20225;-78
2022/04/17 02:45:24;;;;;;;6.25;4.78;;;;;;;3.22;100.00;102858.78;5346617;27;20034;-77
2022/04/17 02:47:55;;;;;;;7.88;4.95;;;;;;;3.19;100.00;102853.63;5345932;27;20120;-77
2022/04/17 02:50:27;;;;;;;10.38;5.68;;;;;;;3.15;100.00;102856.38;5348052;27;20028;-78
2022/04/17 02:53:00;;;;;;;7.88;5.18;;;;;;;3.10;100.00;102855.66;5348610;27;20256;-78
2022/04/17 02:55:32;;;;;;;9.45;5.70;;;;;;;2.96;100.00;102845.50;5354496;27;20027;-78
2022/04/17 02:58:03;;;;;;;10.93;5.63;;;;;;;2.94;100.00;102857.88;5349136;27;20031;-78
2022/04/17 03:05:35;;;;;;;10.05;5.68;;;;;;;2.87;100.00;102849.25;5348496;27;20026;-78
2022/04/17 03:06:17;;;;;;;7.13;5.82;;;;;;;2.88;100.00;102848.38;5346102;27;20032;-78
2022/04/17 03:08:49;;;;;;;7.88;5.22;;;;;;;2.89;100.00;102839.53;5367278;27;20121;-77
2022/04/17 03:11:20;;;;;;;9.25;5.40;;;;;;;2.91;100.00;102837.75;5347571;27;20034;-78
2022/04/17 03:13:52;;;;;;;8.25;5.40;;;;;;;2.99;100.00;102843.63;5345503;27;20034;-78
2022/04/17 03:16:23;;;;;;;7.30;5.78;;;;;;;2.98;100.00;102838.41;5347768;27;20043;-78
2022/04/17 03:18:55;;;;;;;8.35;5.45;;;;;;;2.93;100.00;102840.31;5345972;27;20032;-77
2022/04/17 03:21:27;;;;;;;8.27;5.85;;;;;;;2.89;100.00;102833.41;5347614;27;20073;-78
2022/04/17 03:23:58;;;;;;;7.78;5.28;;;;;;;2.78;100.00;102828.44;5344296;27;20026;-77
2022/04/17 03:26:29;;;;;;;8.27;5.18;;;;;;;2.79;100.00;102831.03;5347439;27;20020;-77
2022/04/17 03:29:01;;;;;;;7.93;4.80;;;;;;;2.77;100.00;102840.78;5343890;27;20057;-77
2022/04/17 03:31:32;;;;;;;6.43;4.78;;;;;;;2.72;100.00;102823.31;5344461;27;20349;-77
2022/04/17 03:34:06;;;;;;;8.95;5.65;;;;;;;2.70;100.00;102831.31;5349486;27;20023;-77
2022/04/17 03:36:39;;;;;;;10.70;5.30;;;;;;;2.66;100.00;102829.63;5349526;27;20039;-77
2022/04/17 03:39:10;;;;;;;8.93;5.18;;;;;;;2.64;100.00;102828.81;5348435;27;20045;-77
2022/04/17 03:41:41;;;;;;;7.57;5.40;;;;;;;2.56;100.00;102818.50;5355046;27;20437;-76
2022/04/17 03:44:13;;;;;;;8.60;5.18;;;;;;;2.56;100.00;102820.25;5350273;27;42101;-79
2022/04/17 03:46:44;;;;;;;7.72;5.25;;;;;;;2.53;100.00;102825.63;5368635;27;20046;-79
2022/04/17 03:49:16;;;;;;;9.10;4.95;;;;;;;2.52;100.00;102832.66;5352231;27;20020;-79
2022/04/17 03:51:47;;;;;;;6.45;4.80;;;;;;;2.44;100.00;102824.13;5345162;27;20080;-79
2022/04/17 03:54:19;;;;;;;7.03;4.60;;;;;;;2.34;100.00;102820.00;5347707;27;20059;-79
2022/04/17 03:56:51;;;;;;;7.10;4.82;;;;;;;2.39;100.00;102829.50;5366338;27;20138;-79
2022/04/17 03:59:22;;;;;;;10.27;5.22;;;;;;;2.35;100.00;102819.06;5349143;27;20404;-79
2022/04/17 04:01:53;;;;;;;9.80;5.85;;;;;;;2.34;100.00;102825.25;5355412;27;20073;-79
2022/04/17 04:04:25;;;;;;;13.13;5.80;;;;;;;2.27;100.00;102820.13;5346033;27;20023;-79
2022/04/17 04:06:56;;;;;;;10.32;6.00;;;;;;;2.28;100.00;102826.28;5346800;27;20031;-79
2022/04/17 04:09:27;;;;;;;10.70;6.22;;;;;;;2.23;100.00;102815.88;5356059;27;20035;-79
2022/04/17 04:11:59;;;;;;;8.00;6.05;;;;;;;2.23;100.00;102817.66;5355128;27;20027;-79
2022/04/17 04:14:30;;;;;;;11.50;5.75;;;;;;;2.19;100.00;102815.97;5346792;27;20384;-79
2022/04/17 04:17:01;;;;;;;8.95;5.90;;;;;;;2.21;100.00;102809.78;5347376;27;20038;-77
2022/04/17 04:19:33;;;;;;;6.70;5.13;;;;;;;2.20;100.00;102810.69;5345462;27;20059;-77
2022/04/17 04:22:04;;;;;;;9.95;5.53;;;;;;;2.16;100.00;102805.56;5346213;27;20099;-77
2022/04/17 04:24:35;;;;;;;9.40;5.63;;;;;;;2.16;100.00;102803.78;5345595;27;20023;-77
2022/04/17 04:29:56;;;;;;;6.95;5.03;;;;;;;2.06;100.00;102800.50;5352456;27;20027;-78
2022/04/17 04:32:28;;;;;;;10.70;6.10;;;;;;;1.93;100.00;102801.72;5359484;27;20030;-77
2022/04/17 04:35:00;;;;;;;8.15;5.65;;;;;;;1.98;100.00;102802.47;5344772;27;20129;-78
2022/04/17 04:37:31;;;;;;;9.57;5.20;;;;;;;1.89;100.00;102810.59;5348350;27;20086;-77
2022/04/17 04:40:05;;;;;;;8.57;5.70;;;;;;;1.80;100.00;102803.78;5344152;27;20035;-77
2022/04/17 04:42:36;;;;;;;8.40;5.63;;;;;;;1.68;100.00;102802.34;5357969;27;20070;-78
2022/04/17 04:47:58;;;;;;;9.15;5.70;;;;;;;1.61;100.00;102797.25;5353668;27;20442;-77
2022/04/17 04:50:29;;;;;;;7.03;5.63;;;;;;;1.80;100.00;102803.78;5352950;27;20030;-78
2022/04/17 04:53:01;;;;;;;7.35;5.82;;;;;;;1.94;100.00;102799.97;5345957;27;20036;-78
2022/04/17 04:55:33;;;;;;;7.13;5.38;;;;;;;2.06;100.00;102799.66;5347211;27;20073;-79
2022/04/17 04:58:04;;;;;;;10.15;5.85;;;;;;;2.18;100.00;102801.97;5361400;27;20031;-79
2022/04/17 05:00:35;;;;;;;8.77;6.22;;;;;;;2.15;100.00;102799.41;5354245;27;20492;-76
2022/04/17 05:03:07;;;;;;;6.72;5.20;;;;;;;2.29;100.00;102793.78;5360070;27;20069;-79
2022/04/17 05:05:39;;;;;;;8.15;5.95;;;;;;;2.14;100.00;102800.31;5354626;27;20107;-76
2022/04/17 05:08:10;;;;;;;7.78;6.30;;;;;;;2.24;100.00;102796.53;5354763;27;20035;-76
2022/04/17 05:10:42;;;;;;;8.98;5.88;;;;;;;2.15;100.00;102794.13;5357099;27;20485;-77
2022/04/17 05:13:13;;;;;;;7.53;6.13;;;;;;;2.14;100.00;102792.41;5358872;27;20479;-77
2022/04/17 05:15:45;;;;;;;9.68;5.80;;;;;;;2.30;100.00;102789.34;5354269;27;20027;-78
2022/04/17 05:18:16;;;;;;;11.07;5.80;;;;;;;2.55;100.00;102811.50;5360347;27;20062;-78
2022/04/17 05:20:47;;;;;;;7.35;5.47;;;;;;;2.85;100.00;102808.91;5357298;27;20047;-78
2022/04/17 05:23:21;;;;;;;11.55;6.13;;;;;;;3.05;100.00;102810.09;5359250;27;20024;-77
2022/04/17 05:25:54;;;;;;;7.30;5.32;;;;;;;3.31;100.00;102802.25;5347929;27;20050;-77
2022/04/17 05:28:30;;;;;;;7.50;5.30;;;;;;;3.52;100.00;102800.72;5359148;27;20353;-78
2022/04/17 05:31:02;;;;;;;10.30;5.63;;;;;;;3.69;100.00;102805.47;5355180;27;20028;-78
2022/04/17 05:33:33;;;;;;;10.32;5.45;;;;;;;4.12;100.00;102803.16;5363896;27;20426;-78
2022/04/17 05:36:04;;;;;;;14.25;6.68;;;;;;;4.24;100.00;102800.09;5356918;27;20027;-78
2022/04/17 05:38:35;;;;;;;8.20;5.55;;;;;;;4.64;100.00;102800.47;5359396;27;20485;-78
2022/04/17 05:41:15;;;;;;;8.23;6.10;;;;;;;4.90;100.00;102799.50;5358355;27;20384;-79
2022/04/17 05:43:51;;;;;;;7.40;5.28;;;;;;;5.24;100.00;102803.47;5357235;27;20031;-78
2022/04/17 05:46:40;;;;;;;9.80;5.85;;;;;;;5.48;100.00;102802.50;5346795;27;20035;-78
2022/04/17 05:49:12;;;;;;;10.80;5.95;;;;;;;5.45;100.00;102797.38;5345284;27;20062;-77
2022/04/17 05:51:44;;;;;;;10.20;5.25;;;;;;;6.00;100.00;102804.84;5353865;27;20032;-77
2022/04/17 05:54:21;;;;;;;6.53;5.07;;;;;;;6.42;100.00;102803.06;5359118;27;20027;-77
2022/04/17 05:57:00;;;;;;;13.27;5.45;;;;;;;6.69;100.00;102778.91;5359496;27;20039;-78
2022/04/17 05:59:34;;;;;;;7.68;5.50;;;;;;;7.09;100.00;102804.44;5357651;27;20062;-78
2022/04/17 06:02:08;;;;;;;6.38;4.45;;;;;;;7.33;100.00;102802.44;5366267;27;20084;-78
2022/04/17 06:04:47;;;;;;;6.93;5.20;;;;;;;7.48;100.00;102779.56;5367313;27;20054;-78
2022/04/17 06:07:29;;;;;;;6.10;4.38;;;;;;;8.01;100.00;102804.44;5351987;27;20441;-78
2022/04/17 06:10:04;;;;;;;6.43;4.85;;;;;;;8.26;100.00;102787.22;5355147;27;20107;-78
2022/04/17 06:12:38;;;;;;;6.63;4.72;;;;;;;8.60;100.00;102793.44;5352917;27;21384;-78
2022/04/17 06:15:13;;;;;;;9.60;3.92;;;;;;;8.87;100.00;102797.28;5358739;27;20555;-78
2022/04/17 06:17:44;;;;;;;6.03;4.15;;;;;;;9.17;100.00;102791.22;5356931;27;20033;-79
2022/04/17 06:20:16;;;;;;;7.30;4.07;;;;;;;9.52;100.00;102799.03;5357908;27;20023;-78
2022/04/17 06:22:47;;;;;;;7.22;4.20;;;;;;;9.53;91.09;102783.88;5352890;27;20104;-78
2022/04/17 06:25:19;;;;;;;5.13;3.85;;;;;;;10.20;85.30;102782.59;5354447;27;20032;-78
2022/04/17 06:27:55;;;;;;;6.65;3.92;;;;;;;10.50;76.00;102795.03;5365473;27;20476;-78
2022/04/17 06:30:27;;;;;;;4.55;4.15;;;;;;;10.74;72.85;102776.63;5351346;27;20094;-78
2022/04/17 06:32:59;;;;;;;5.10;3.30;;;;;;;11.04;71.75;102783.63;5353137;27;20542;-78
2022/04/17 06:35:30;;;;;;;4.68;3.75;;;;;;;11.39;67.68;102780.50;5357767;27;20031;-78
2022/04/17 06:38:02;;;;;;;4.85;3.65;;;;;;;11.32;66.76;102777.38;5348180;27;20031;-78
2022/04/17 06:40:36;;;;;;;4.00;3.40;;;;;;;11.77;65.38;102785.13;5347070;27;20032;-78
2022/04/17 06:43:09;;;;;;;6.53;3.75;;;;;;;12.24;59.10;102786.44;5365285;27;20488;-78
2022/04/17 06:45:40;;;;;;;5.70;3.13;;;;;;;12.86;55.19;102782.94;5363535;27;20019;-78
2022/04/17 06:48:21;;;;;;;3.65;3.30;;;;;;;13.16;52.00;102789.72;5346981;27;20043;-78
2022/04/17 06:50:55;;;;;;;3.97;2.92;;;;;;;13.07;50.96;102787.72;5346865;27;20038;-78
2022/04/17 06:53:27;;;;;;;3.75;2.80;;;;;;;13.88;48.46;102786.22;5347521;27;20061;-78
2022/04/17 06:55:58;;;;;;;4.90;2.80;;;;;;;14.04;45.41;102785.03;5348885;27;20405;-78
2022/04/17 06:58:30;;;;;;;6.78;3.30;;;;;;;14.25;44.08;102779.84;5348283;27;20392;-78
2022/04/17 07:01:01;;;;;;;4.13;2.50;;;;;;;14.80;43.58;102774.69;5346367;27;20043;-77
2022/04/17 07:03:33;;;;;;;3.90;3.10;;;;;;;15.24;42.42;102778.28;5367594;27;20020;-77
2022/04/17 07:06:04;;;;;;;5.47;3.10;;;;;;;15.80;41.99;102783.47;5366080;27;20027;-77
2022/04/17 07:08:36;;;;;;;3.08;2.67;;;;;;;16.06;40.92;102777.72;5351324;27;20062;-77
2022/04/17 07:11:07;;;;;;;4.25;2.80;;;;;;;16.45;39.59;102776.09;5348717;27;20082;-78
2022/04/17 07:13:39;;;;;;;3.65;2.53;;;;;;;17.09;38.55;102770.53;5361273;27;20035;-77
2022/04/17 07:16:11;;;;;;;4.03;2.65;;;;;;;17.27;35.79;102760.78;5355158;27;20516;-78
2022/04/17 07:18:43;;;;;;;3.30;2.78;;;;;;;17.09;35.52;102768.69;5339027;27;20038;-77
2022/04/17 07:21:16;;;;;;;2.95;2.60;;;;;;;17.44;35.11;102764.59;5362148;27;20042;-78
2022/04/17 07:23:47;;;;;;;3.25;2.28;;;;;;;17.81;35.28;102754.94;5363380;27;20520;-78
2022/04/17 07:26:19;;;;;;;4.65;2.50;;;;;;;18.51;34.30;102750.97;5366400;27;20027;-78
2022/04/17 07:28:50;;;;;;;3.38;2.58;;;;;;;18.84;33.30;102748.69;5346707;27;20508;-78
2022/04/17 07:31:21;;;;;;;3.40;2.45;;;;;;;18.90;32.97;102752.66;5355877;27;20030;-78
2022/04/17 07:33:53;;;;;;;5.40;2.85;;;;;;;19.12;32.44;102743.25;5349381;27;20362;-78
2022/04/17 07:36:24;;;;;;;7.15;2.78;;;;;;;19.99;30.77;102741.69;5354950;27;20051;-78
2022/04/17 07:38:55;;;;;;;4.07;2.80;;;;;;;20.28;30.68;102745.91;5354139;27;20430;-78
2022/04/17 07:41:27;;;;;;;3.30;2.38;;;;;;;20.65;29.12;102746.63;5355521;27;20392;-78
2022/04/17 07:43:58;;;;;;;4.30;2.67;;;;;;;20.67;30.08;102744.59;5351733;27;20554;-78
2022/04/17 07:46:30;;;;;;;3.45;2.60;;;;;;;22.13;27.76;102744.13;5351929;27;20077;-78
2022/04/17 07:49:02;;;;;;;4.40;2.80;;;;;;;22.20;27.51;102737.81;5349756;27;20038;-79
2022/04/17 07:51:33;;;;;;;3.55;2.40;;;;;;;22.58;27.15;102734.47;5352104;27;20034;-79
2022/04/17 07:54:07;;;;;;;3.15;2.17;;;;;;;23.18;26.17;102725.66;5353552;27;20043;-79
2022/04/17 07:56:39;;;;;;;4.70;2.83;;;;;;;22.65;25.71;102730.88;5361771;27;20031;-79
2022/04/17 07:59:10;;;;;;;3.25;2.38;;;;;;;23.61;25.67;102733.31;5351431;27;20023;-79
2022/04/17 08:01:43;;;;;;;3.85;2.58;;;;;;;24.20;24.69;102738.06;5352094;27;20015;-78
2022/04/17 08:04:14;;;;;;;4.05;2.47;;;;;;;24.50;23.94;102733.44;5350610;27;20027;-80
2022/04/17 08:06:45;;;;;;;2.75;2.40;;;;;;;25.13;23.36;102732.13;5357405;27;20490;-79
2022/04/17 08:09:19;;;;;;;3.25;2.95;;;;;;;25.62;23.63;102737.63;5358650;27;20035;-79
2022/04/17 08:11:53;;;;;;;2.40;2.20;;;;;;;25.74;22.11;102727.03;5349875;27;20052;-79
2022/04/17 08:14:24;;;;;;;4.57;2.13;;;;;;;25.48;22.26;102731.22;5336309;27;20089;-79
2022/04/17 08:16:55;;;;;;;4.28;2.45;;;;;;;26.13;22.54;102730.25;5349360;27;20039;-79
2022/04/17 08:19:29;;;;;;;4.90;3.17;;;;;;;25.56;22.67;102726.66;5356428;27;20072;-80
2022/04/17 08:22:04;;;;;;;4.70;2.65;;;;;;;26.07;21.55;102728.31;5351807;27;20172;-80
2022/04/17 08:24:35;;;;;;;2.72;2.33;;;;;;;26.94;21.34;102729.59;5354836;27;20106;-79
2022/04/17 08:27:06;;;;;;;2.95;2.03;;;;;;;27.74;20.52;102726.97;5346720;27;20092;-78
2022/04/17 08:29:38;;;;;;;2.80;2.20;;;;;;;27.20;20.67;102722.50;5353913;27;20028;-79
2022/04/17 08:32:09;;;;;;;4.88;2.22;;;;;;;28.41;19.22;102726.84;5353831;27;20316;-78
2022/04/17 08:34:44;;;;;;;5.38;2.28;;;;;;;28.79;19.89;102724.16;5356241;27;20070;-79
2022/04/17 08:37:15;;;;;;;4.07;2.28;;;;;;;28.69;19.42;102725.72;5365703;27;20023;-79
2022/04/17 08:39:47;;;;;;;2.50;1.95;;;;;;;29.46;18.07;102720.16;5356161;27;20129;-79
2022/04/17 08:42:18;;;;;;;3.72;2.15;;;;;;;30.29;18.32;102722.50;5363781;27;20038;-79
2022/04/17 08:44:51;;;;;;;3.83;2.10;;;;;;;28.46;18.92;102716.06;5359898;27;20376;-79
2022/04/17 08:47:22;;;;;;;3.55;2.50;;;;;;;30.17;17.90;102711.44;5356202;27;20035;-79
2022/04/17 08:49:55;;;;;;;3.88;2.00;;;;;;;29.24;18.05;102704.03;5367702;27;20084;-79
2022/04/17 08:52:30;;;;;;;4.60;2.25;;;;;;;29.75;17.99;102713.09;5360766;27;20538;-78
2022/04/17 08:55:02;;;;;;;3.05;2.25;;;;;;;28.89;17.70;102709.94;5379052;27;20042;-78
2022/04/17 08:57:34;;;;;;;2.75;2.10;;;;;;;30.55;17.38;102712.28;5345917;27;20027;-79
2022/04/17 09:00:08;;;;;;;2.72;2.33;;;;;;;30.81;16.95;102708.31;5345283;27;20028;-79
2022/04/17 09:02:40;;;;;;;3.03;2.00;;;;;;;31.29;16.40;102699.13;5351554;27;20045;-78
2022/04/17 09:05:13;;;;;;;3.08;2.00;;;;;;;31.26;16.72;102705.13;5362105;27;20015;-78
2022/04/17 09:07:49;;;;;;;2.88;2.15;;;;;;;30.97;17.19;102695.00;5367518;27;20034;-79
2022/04/17 09:10:29;;;;;;;7.60;2.95;;;;;;;30.31;19.24;102701.13;5365407;27;20496;-79
2022/04/17 09:13:04;;;;;;;3.75;1.85;;;;;;;31.23;16.49;102693.72;5343805;27;20035;-79
2022/04/17 09:15:37;;;;;;;2.97;2.10;;;;;;;31.32;16.23;102694.22;5350645;27;20050;-79
2022/04/17 09:18:08;;;;;;;3.25;1.95;;;;;;;30.96;16.87;102691.41;5366480;27;20070;-79
2022/04/17 09:20:46;;;;;;;2.85;1.80;;;;;;;32.36;15.20;102699.91;5360569;27;20051;-79
2022/04/17 09:23:36;;;;;;;2.63;1.60;;;;;;;32.44;16.09;102695.13;5344036;27;20123;-79
2022/04/17 09:26:08;;;;;;;3.35;1.83;;;;;;;31.98;15.64;102684.75;5351300;27;20551;-78
2022/04/17 09:28:44;;;;;;;2.15;1.90;;;;;;;29.50;17.35;102675.50;5358595;27;20109;-79
2022/04/17 09:31:15;;;;;;;3.33;2.00;;;;;;;29.77;16.58;102680.78;5364005;27;20023;-79
2022/04/17 09:33:50;;;;;;;2.95;2.00;;;;;;;28.16;18.06;102674.59;5354800;27;20487;-79
2022/04/17 09:36:30;;;;;;;3.05;2.10;;;;;;;29.72;16.73;102683.34;5343434;27;20481;-79
2022/04/17 09:39:11;;;;;;;5.28;2.08;;;;;;;30.15;16.39;102677.81;5347007;27;20031;-79
2022/04/17 09:41:53;;;;;;;4.18;1.70;;;;;;;30.38;16.85;102675.44;5352919;27;20027;-79
2022/04/17 09:44:38;;;;;;;2.70;1.90;;;;;;;30.98;17.18;102672.72;5339736;27;20577;-79
2022/04/17 09:47:12;;;;;;;3.00;1.90;;;;;;;30.57;16.64;102665.25;5352135;27;20044;-79
2022/04/17 09:49:58;;;;;;;2.75;1.88;;;;;;;32.98;15.33;102660.50;5358319;27;20115;-79
2022/04/17 09:52:32;;;;;;;4.03;2.10;;;;;;;33.15;15.56;102654.16;5355777;27;20039;-79
2022/04/17 09:55:04;;;;;;;4.25;2.20;;;;;;;33.25;15.82;102647.97;5362899;27;20107;-79
2022/04/17 09:57:37;;;;;;;2.25;2.03;;;;;;;33.69;14.54;102637.88;5353011;27;20035;-79
2022/04/17 10:00:12;;;;;;;2.42;2.03;;;;;;;31.82;15.57;102641.34;5354658;27;20488;-79
2022/04/17 10:02:45;;;;;;;3.50;2.20;;;;;;;33.82;14.62;102631.13;5345637;27;20130;-77
2022/04/17 10:05:21;;;;;;;3.22;1.98;;;;;;;33.62;14.87;102631.66;5349345;27;20028;-78
2022/04/17 10:07:53;;;;;;;2.20;1.88;;;;;;;34.08;14.37;102625.88;5353697;27;20102;-78
2022/04/17 10:10:24;;;;;;;2.33;1.90;;;;;;;34.47;13.82;102623.88;5352740;27;20225;-78
2022/04/17 10:12:58;;;;;;;1.95;1.80;;;;;;;35.20;13.90;102617.91;5349329;27;20024;-79
2022/04/17 10:15:30;;;;;;;2.35;1.65;;;;;;;34.42;13.77;102615.50;5355966;27;20028;-78
2022/04/17 10:18:03;;;;;;;3.22;1.92;;;;;;;33.88;14.44;102605.19;5346410;27;20051;-79
2022/04/17 10:20:34;;;;;;;2.13;1.75;;;;;;;33.89;14.62;102603.28;5347835;27;20053;-79
2022/04/17 10:23:09;;;;;;;2.25;1.70;;;;;;;34.99;13.86;102591.91;5348020;27;20082;-79
2022/04/17 10:25:42;;;;;;;3.08;1.77;;;;;;;35.33;13.27;102599.13;5361056;27;20031;-79
2022/04/17 10:28:15;;;;;;;2.40;1.48;;;;;;;35.71;12.84;102592.41;5369959;27;20019;-79
2022/04/17 10:31:01;;;;;;;3.30;1.50;;;;;;;36.13;12.75;102593.38;5369112;27;20015;-79
2022/04/17 10:33:35;;;;;;;;;;;;;;;38.84;11.76;102584.53;5369565;27;20023;-79
2022/04/17 10:36:14;;;;;;;3.25;1.50;;;;;;;37.08;11.95;102578.16;5369329;27;19911;-78
2022/04/17 10:38:59;;;;;;;3.05;1.60;;;;;;;36.60;12.85;102574.84;5363503;27;20044;-79
2022/04/17 10:41:31;;;;;;;2.30;1.58;;;;;;;35.73;12.25;102559.66;5370368;27;20053;-79
2022/04/17 10:44:03;;;;;;;1.55;1.33;;;;;;;36.33;12.49;102560.09;5389783;27;20023;-79
2022/04/17 10:46:52;;;;;;;2.00;1.40;;;;;;;37.84;11.55;102542.88;5390600;27;20019;-79
2022/04/17 10:49:32;;;;;;;2.70;1.65;;;;;;;36.02;11.75;102556.41;5388688;27;20019;-79
2022/04/17 10:52:03;;;;;;;3.28;1.50;;;;;;;35.76;12.70;102548.00;5389045;27;20023;-78
2022/04/17 10:54:48;;;;;;;2.13;1.33;;;;;;;35.83;11.99;102556.06;5390652;27;20036;-78
2022/04/17 10:57:23;;;;;;;2.33;1.37;;;;;;;34.20;13.08;102538.03;5368134;27;20513;-78
2022/04/17 11:00:28;;;;;;;1.38;1.23;;;;;;;35.92;12.66;102531.41;5347069;27;20118;-78
2022/04/17 11:03:08;;;;;;;3.60;1.75;;;;;;;34.48;12.46;102525.00;5380755;27;20015;-78
2022/04/17 11:08:45;;;;;;;1.58;1.25;;;;;;;35.25;11.96;102535.84;5390023;27;20434;-78
2022/04/17 11:11:17;;;;;;;3.80;1.88;;;;;;;34.26;11.96;102539.75;5376212;27;20024;-78
2022/04/17 11:14:08;;;;;;;3.25;1.42;;;;;;;35.93;11.65;102527.53;5368914;27;20098;-78
2022/04/17 11:16:48;;;;;;;1.45;1.27;;;;;;;34.53;11.76;102515.91;5366621;27;20015;-79
2022/04/17 11:19:22;;;;;;;1.45;1.00;;;;;;;35.30;11.92;102520.06;5368511;27;20027;-78
2022/04/17 11:21:56;;;;;;;3.28;1.27;;;;;;;35.77;11.41;102515.56;5369291;27;20025;-79
2022/04/17 11:24:29;;;;;;;2.95;1.15;;;;;;;34.86;11.23;102506.47;5368163;27;20031;-78
2022/04/17 11:27:00;;;;;;;1.77;1.05;;;;;;;34.82;11.04;102508.13;5368627;27;20069;-78
2022/04/17 11:29:48;;;;;;;2.07;1.17;;;;;;;34.71;11.67;102504.41;5368351;27;20067;-79
2022/04/17 11:32:23;;;;;;;2.88;1.33;;;;;;;34.23;11.97;102492.38;5368241;27;20460;-78
2022/04/17 11:35:01;;;;;;;2.13;1.40;;;;;;;35.58;11.84;102474.38;5367169;27;20023;-78
2022/04/17 11:37:34;;;;;;;4.18;1.67;;;;;;;34.26;12.82;102483.56;5368277;27;20031;-78
2022/04/17 11:40:13;;;;;;;3.22;1.50;;;;;;;34.56;12.89;102479.38;5366903;27;20453;-78
2022/04/17 11:42:47;;;;;;;3.08;1.30;;;;;;;34.74;12.01;102478.13;5348992;27;20031;-78
2022/04/17 11:45:21;;;;;;;4.68;1.42;;;;;;;34.15;12.05;102492.81;5357214;27;20016;-78
2022/04/17 11:48:03;;;;;;;2.75;1.38;;;;;;;34.83;11.93;102474.56;5345530;27;20065;-78
2022/04/17 11:50:35;;;;;;;2.47;1.20;;;;;;;35.36;11.55;102465.44;5346292;27;20031;-78
2022/04/17 11:53:15;;;;;;;2.03;1.17;;;;;;;36.13;11.12;102468.41;5346765;27;20485;-78
2022/04/17 11:55:47;;;;;;;2.70;1.00;;;;;;;36.30;10.77;102455.09;5359789;27;20030;-78
2022/04/17 11:58:25;;;;;;;3.22;1.20;;;;;;;34.96;11.77;102459.41;5366971;27;20074;-78
2022/04/17 12:01:03;;;;;;;2.03;1.20;;;;;;;35.87;10.85;102467.53;5367310;27;20031;-78
2022/04/17 12:03:44;;;;;;;2.35;1.20;;;;;;;34.86;11.48;102439.97;5345579;27;20114;-78
2022/04/17 12:06:16;;;;;;;2.58;1.13;;;;;;;35.73;10.64;102433.94;5346388;27;20106;-79